Parsival — V2MS — position and weather

sailwx.info

Track history (hours):
 
Tides and Currents Weather Stations Pressure Air Temp Water Temp Dewpoint Dewpoint Depression Visibility Wind Speed Wind Dir Waves Ship Positions

Parsival

Last reported at 2015-Apr-20 17:22 UTC. Time now 2015-Apr-21 08:15 UTC.
Position N 36°00' W 005°16'.

; draft 3.4 m.

Type: Cargo ship. MMSI: 304010881.

Date/timePositionNaut miles runAvg speedWind from/ knotsBaromVisibWave heightAir tempDewpointWater temp
2015-Apr-20 17:22N 36°00' W 005°16'10 9.5
2015-Apr-20 16:17N 35°56' W 005°28'2 0.1
2015-Apr-19 14:14N 35°56' W 005°30'4 6.4
2015-Apr-19 13:33N 35°59' W 005°27'6 6.5
2015-Apr-19 12:33N 36°01' W 005°19'7 6.8
2015-Apr-19 11:33N 36°03' W 005°11'211 9.0
2015-Apr-18 12:05N 37°13' W 001°03'5 9.9
2015-Apr-18 11:31N 37°17' W 000°58'9 9.7
2015-Apr-18 10:33N 37°23' W 000°49'1010.0
2015-Apr-18 09:32N 37°30' W 000°40'10 9.9
2015-Apr-18 08:33N 37°37' W 000°32'10 9.7
2015-Apr-18 07:33N 37°46' W 000°25'1010.0
2015-Apr-18 06:33N 37°54' W 000°18'1010.4
2015-Apr-18 05:33N 38°02' W 000°10'1110.3
2015-Apr-18 04:32N 38°11' W 000°03'1110.1
2015-Apr-18 03:26N 38°20' E 000°05'1310.2
2015-Apr-18 02:10N 38°31' E 000°15'71 2.8
2015-Apr-17 00:31N 39°39' W 000°13'9 7.7
2015-Apr-16 23:18N 39°34' W 000°02'90 2.9
2015-Apr-15 16:19N 38°04' W 000°05'7 9.0
2015-Apr-15 15:33N 37°59' W 000°10'9 9.0
2015-Apr-15 14:33N 37°51' W 000°16'9 9.2
2015-Apr-15 13:33N 37°44' W 000°22'9 8.8
2015-Apr-15 12:33N 37°36' W 000°29'9 8.6
2015-Apr-15 11:33N 37°30' W 000°35'8 8.3
2015-Apr-15 10:33N 37°24' W 000°43'8 8.3
2015-Apr-15 09:33N 37°19' W 000°51'8 8.4
2015-Apr-15 08:33N 37°13' W 000°59'220 5.4
2015-Apr-13 15:32N 35°60' W 005°18'10 8.2
2015-Apr-13 14:17N 35°57' W 005°30'227 7.1
2015-Apr-12 06:22N 37°36' W 009°46'7 8.5
2015-Apr-12 05:33N 37°42' W 009°48'8 8.3
2015-Apr-12 04:33N 37°50' W 009°50'8 8.0
2015-Apr-12 03:33N 37°58' W 009°53'8 8.4
2015-Apr-12 02:33N 38°06' W 009°56'9 8.5
2015-Apr-12 01:33N 38°15' W 009°58'9 8.6
2015-Apr-12 00:32N 38°23' W 010°00'9 9.0
2015-Apr-11 23:32N 38°32' W 010°03'9 9.1
2015-Apr-11 22:33N 38°41' W 010°05'9 8.9
2015-Apr-11 21:33N 38°50' W 010°06'9 9.1
2015-Apr-11 20:33N 38°59' W 010°06'9 9.0
2015-Apr-11 19:33N 39°08' W 010°06'9 9.3
2015-Apr-11 18:33N 39°17' W 010°06'  
Track history (hours):
 
Tides and Currents Weather Stations Pressure Air Temp Water Temp Dewpoint Dewpoint Depression Visibility Wind Speed Wind Dir Waves Ship Positions

Parsival

Last reported at 2015-Apr-20 17:22 UTC. Time now 2015-Apr-21 08:15 UTC.
Position N 36°00' W 005°16'.

; draft 3.4 m.

Type: Cargo ship. MMSI: 304010881.

Date/timePositionNaut miles runAvg speedWind from/ knotsBaromVisibWave heightAir tempDewpointWater temp
2015-Apr-20 17:22N 36°00' W 005°16'10 9.5
2015-Apr-20 16:17N 35°56' W 005°28'2 0.1
2015-Apr-19 14:14N 35°56' W 005°30'4 6.4
2015-Apr-19 13:33N 35°59' W 005°27'6 6.5
2015-Apr-19 12:33N 36°01' W 005°19'7 6.8
2015-Apr-19 11:33N 36°03' W 005°11'211 9.0
2015-Apr-18 12:05N 37°13' W 001°03'5 9.9
2015-Apr-18 11:31N 37°17' W 000°58'9 9.7
2015-Apr-18 10:33N 37°23' W 000°49'1010.0
2015-Apr-18 09:32N 37°30' W 000°40'10 9.9
2015-Apr-18 08:33N 37°37' W 000°32'10 9.7
2015-Apr-18 07:33N 37°46' W 000°25'1010.0
2015-Apr-18 06:33N 37°54' W 000°18'1010.4
2015-Apr-18 05:33N 38°02' W 000°10'1110.3
2015-Apr-18 04:32N 38°11' W 000°03'1110.1
2015-Apr-18 03:26N 38°20' E 000°05'1310.2
2015-Apr-18 02:10N 38°31' E 000°15'71 2.8
2015-Apr-17 00:31N 39°39' W 000°13'9 7.7
2015-Apr-16 23:18N 39°34' W 000°02'90 2.9
2015-Apr-15 16:19N 38°04' W 000°05'7 9.0
2015-Apr-15 15:33N 37°59' W 000°10'9 9.0
2015-Apr-15 14:33N 37°51' W 000°16'9 9.2
2015-Apr-15 13:33N 37°44' W 000°22'9 8.8
2015-Apr-15 12:33N 37°36' W 000°29'9 8.6
2015-Apr-15 11:33N 37°30' W 000°35'8 8.3
2015-Apr-15 10:33N 37°24' W 000°43'8 8.3
2015-Apr-15 09:33N 37°19' W 000°51'8 8.4
2015-Apr-15 08:33N 37°13' W 000°59'220 5.4
2015-Apr-13 15:32N 35°60' W 005°18'10 8.2
2015-Apr-13 14:17N 35°57' W 005°30'227 7.1
2015-Apr-12 06:22N 37°36' W 009°46'7 8.5
2015-Apr-12 05:33N 37°42' W 009°48'8 8.3
2015-Apr-12 04:33N 37°50' W 009°50'8 8.0
2015-Apr-12 03:33N 37°58' W 009°53'8 8.4
2015-Apr-12 02:33N 38°06' W 009°56'9 8.5
2015-Apr-12 01:33N 38°15' W 009°58'9 8.6
2015-Apr-12 00:32N 38°23' W 010°00'9 9.0
2015-Apr-11 23:32N 38°32' W 010°03'9 9.1
2015-Apr-11 22:33N 38°41' W 010°05'9 8.9
2015-Apr-11 21:33N 38°50' W 010°06'9 9.1
2015-Apr-11 20:33N 38°59' W 010°06'9 9.0
2015-Apr-11 19:33N 39°08' W 010°06'9 9.3
2015-Apr-11 18:33N 39°17' W 010°06'  

Dump ship's entire track history